createdAt,value
2022-09-30T00:01:03.486Z,8.77
2022-09-30T00:04:11.191Z,8.77
2022-09-30T00:07:17.982Z,8.78
2022-09-30T00:10:26.458Z,8.77
2022-09-30T00:13:34.032Z,8.76
2022-09-30T00:16:40.633Z,8.77
2022-09-30T00:19:47.279Z,8.81
2022-09-30T00:22:53.004Z,8.82
2022-09-30T00:26:06.515Z,8.79
2022-09-30T00:29:13.489Z,8.69
2022-09-30T00:32:20.062Z,8.64
2022-09-30T00:35:25.802Z,8.64
2022-09-30T00:38:32.435Z,8.66
2022-09-30T00:41:43.703Z,8.73
2022-09-30T00:44:57.310Z,8.81
2022-09-30T00:48:10.324Z,8.88
2022-09-30T00:51:16.901Z,8.94
2022-09-30T00:54:27.072Z,8.97
2022-09-30T00:57:37.455Z,9.03
2022-09-30T01:00:44.204Z,9.09
2022-09-30T01:03:55.189Z,9.13
2022-09-30T01:07:03.066Z,9.15
2022-09-30T01:10:10.753Z,9.17
2022-09-30T01:13:21.182Z,9.15
2022-09-30T01:16:47.378Z,9.13
2022-09-30T01:20:27.264Z,9.11
2022-09-30T01:24:08.348Z,9.09
2022-09-30T01:27:25.953Z,9.12
2022-09-30T01:30:52.464Z,9.22
2022-09-30T01:34:06.123Z,9.17
2022-09-30T01:37:20.822Z,9.20
2022-09-30T01:40:31.813Z,9.24
2022-09-30T01:43:46.335Z,9.27
2022-09-30T01:47:03.377Z,9.26
2022-09-30T01:50:18.105Z,9.27
2022-09-30T01:53:30.692Z,9.29
2022-09-30T01:56:44.366Z,9.29
2022-09-30T01:59:57.571Z,9.29
2022-09-30T02:03:11.152Z,9.29
2022-09-30T02:06:23.607Z,9.30
2022-09-30T02:09:36.266Z,9.31
2022-09-30T02:12:48.747Z,9.32
2022-09-30T02:16:01.041Z,9.35
2022-09-30T02:19:20.638Z,9.34
2022-09-30T02:22:36.369Z,9.36
2022-09-30T02:25:47.347Z,9.33
2022-09-30T02:29:03.925Z,9.34
2022-09-30T02:32:18.734Z,9.38
2022-09-30T02:35:33.082Z,9.42
2022-09-30T02:38:49.183Z,9.42
2022-09-30T02:41:59.092Z,9.45
2022-09-30T02:45:11.897Z,9.49
2022-09-30T02:48:27.971Z,9.52
2022-09-30T02:51:44.006Z,9.54
2022-09-30T02:54:56.234Z,9.57
2022-09-30T02:58:12.075Z,9.55
2022-09-30T03:01:19.914Z,9.57
2022-09-30T03:04:28.923Z,9.57
2022-09-30T03:07:37.661Z,9.57
2022-09-30T03:10:44.745Z,9.59
2022-09-30T03:14:26.717Z,9.60
2022-09-30T03:17:47.116Z,9.52
2022-09-30T03:21:07.275Z,9.49
2022-09-30T03:24:54.115Z,9.54
2022-09-30T03:28:15.244Z,9.52
2022-09-30T03:31:28.898Z,9.54
2022-09-30T03:34:47.832Z,9.51
2022-09-30T03:38:03.954Z,9.52
2022-09-30T03:41:27.639Z,9.50
2022-09-30T03:44:45.817Z,9.50
2022-09-30T03:47:56.447Z,9.48
2022-09-30T03:51:03.822Z,9.51
2022-09-30T03:54:12.726Z,9.53
2022-09-30T03:57:22.077Z,9.55
2022-09-30T04:00:27.748Z,9.54
2022-09-30T04:03:35.712Z,9.55
2022-09-30T04:06:41.528Z,9.56
2022-09-30T04:09:47.975Z,9.57
2022-09-30T04:12:59.609Z,9.59
2022-09-30T04:16:07.171Z,9.63
2022-09-30T04:19:12.787Z,9.64
2022-09-30T04:22:21.271Z,9.67
2022-09-30T04:25:30.461Z,9.68
2022-09-30T04:28:39.800Z,9.69
2022-09-30T04:31:45.821Z,9.70
2022-09-30T04:34:53.692Z,9.71
2022-09-30T04:37:59.238Z,9.70
2022-09-30T04:41:08.429Z,9.72
2022-09-30T04:44:16.865Z,9.75
2022-09-30T04:47:25.731Z,9.76
2022-09-30T04:50:31.407Z,9.83
2022-09-30T04:53:38.792Z,9.89
2022-09-30T04:56:44.469Z,9.96
2022-09-30T04:59:53.924Z,10.05
2022-09-30T05:02:59.497Z,10.10
2022-09-30T05:06:08.219Z,10.15
2022-09-30T05:09:13.972Z,10.20
2022-09-30T05:12:20.518Z,10.25
2022-09-30T05:15:29.430Z,10.34
2022-09-30T05:18:36.700Z,10.39
2022-09-30T05:21:45.054Z,10.49
2022-09-30T05:24:51.892Z,10.51
2022-09-30T05:27:57.700Z,10.54
2022-09-30T05:31:07.926Z,10.59
2022-09-30T05:34:16.886Z,10.62
2022-09-30T05:37:23.398Z,10.68
2022-09-30T05:40:29.293Z,10.69
2022-09-30T05:43:35.773Z,10.69
2022-09-30T05:46:45.713Z,10.68
2022-09-30T05:49:55.979Z,10.68
2022-09-30T05:53:03.557Z,10.68
2022-09-30T05:56:11.146Z,10.70
2022-09-30T05:59:16.676Z,10.76
2022-09-30T06:02:25.937Z,10.80
2022-09-30T06:05:31.545Z,10.81
2022-09-30T06:08:38.207Z,10.86
2022-09-30T06:11:43.815Z,10.89
2022-09-30T06:14:50.307Z,10.89
2022-09-30T06:17:59.423Z,10.90
2022-09-30T06:21:07.941Z,10.96
2022-09-30T06:24:14.896Z,11.02
2022-09-30T06:27:22.295Z,11.11
2022-09-30T06:30:32.877Z,11.15
2022-09-30T06:33:44.433Z,11.17
2022-09-30T06:36:49.996Z,11.14
2022-09-30T06:39:56.631Z,11.18
2022-09-30T06:43:03.211Z,11.25
2022-09-30T06:46:17.638Z,11.32
2022-09-30T06:49:42.143Z,11.34
2022-09-30T06:52:52.320Z,11.33
2022-09-30T06:56:03.021Z,11.31
2022-09-30T06:59:09.792Z,11.27
2022-09-30T07:02:15.701Z,11.23
2022-09-30T07:05:25.954Z,11.22
2022-09-30T07:08:33.593Z,11.24
2022-09-30T07:11:41.152Z,11.29
2022-09-30T07:14:48.064Z,11.27
2022-09-30T07:17:56.803Z,11.28
2022-09-30T07:21:06.295Z,11.32
2022-09-30T07:24:12.921Z,11.32
2022-09-30T07:27:19.326Z,11.37
2022-09-30T07:30:27.457Z,11.40
2022-09-30T07:33:33.847Z,11.41
2022-09-30T07:36:43.934Z,11.44
2022-09-30T07:39:51.294Z,11.46
2022-09-30T07:42:57.977Z,11.48
2022-09-30T07:46:06.774Z,11.48
2022-09-30T07:49:25.035Z,11.50
2022-09-30T07:52:33.812Z,11.51
2022-09-30T07:55:40.325Z,11.56
2022-09-30T07:58:46.801Z,11.61
2022-09-30T08:01:54.029Z,11.63
2022-09-30T08:05:00.001Z,11.65
2022-09-30T08:08:11.305Z,11.73
2022-09-30T08:11:17.623Z,11.74
2022-09-30T08:14:26.356Z,11.73
2022-09-30T08:17:31.997Z,11.81
2022-09-30T08:20:38.470Z,11.89
2022-09-30T08:23:46.990Z,11.92
2022-09-30T08:26:53.857Z,11.94
2022-09-30T08:30:04.196Z,11.98
2022-09-30T08:33:11.330Z,11.99
2022-09-30T08:36:18.892Z,11.97
2022-09-30T08:39:28.311Z,12.01
2022-09-30T08:42:52.987Z,12.08
2022-09-30T08:46:12.071Z,12.11
2022-09-30T08:49:42.789Z,12.12
2022-09-30T08:52:51.849Z,12.08
2022-09-30T08:56:03.156Z,12.09
2022-09-30T08:59:17.978Z,12.10
2022-09-30T09:02:27.873Z,12.10
2022-09-30T09:05:49.963Z,12.06
2022-09-30T09:09:19.416Z,12.06
2022-09-30T09:12:40.433Z,12.03
2022-09-30T09:15:57.289Z,12.03
2022-09-30T09:19:11.647Z,12.03
2022-09-30T09:22:19.153Z,12.02
2022-09-30T09:25:31.230Z,12.03
2022-09-30T09:28:43.914Z,12.04
2022-09-30T09:31:51.570Z,12.06
2022-09-30T09:35:03.431Z,12.12
2022-09-30T09:38:31.932Z,12.14
2022-09-30T09:41:47.039Z,12.13
2022-09-30T09:45:03.373Z,12.26
2022-09-30T09:48:13.690Z,12.36
2022-09-30T09:51:30.039Z,12.44
2022-09-30T09:54:38.159Z,12.50
2022-09-30T09:57:44.669Z,12.53
2022-09-30T10:01:31.450Z,12.55
2022-09-30T10:04:42.052Z,12.62
2022-09-30T10:07:48.004Z,12.71
2022-09-30T10:10:56.395Z,12.83
2022-09-30T10:14:03.855Z,12.98
2022-09-30T10:17:23.086Z,13.00
2022-09-30T10:20:34.724Z,13.00
2022-09-30T10:23:44.119Z,13.00
2022-09-30T10:26:49.812Z,13.08
2022-09-30T10:29:56.319Z,13.12
2022-09-30T10:33:06.829Z,13.18
2022-09-30T10:36:17.611Z,13.21
2022-09-30T10:39:27.208Z,13.17
2022-09-30T10:42:36.510Z,13.13
2022-09-30T10:45:42.432Z,13.19
2022-09-30T10:48:54.009Z,13.13
2022-09-30T10:52:00.713Z,13.04
2022-09-30T10:55:14.822Z,13.03
2022-09-30T10:58:28.796Z,13.04
2022-09-30T11:01:40.338Z,13.07
2022-09-30T11:04:54.119Z,13.07
2022-09-30T11:08:06.023Z,13.02
2022-09-30T11:11:16.941Z,12.92
2022-09-30T11:14:34.152Z,12.82
2022-09-30T11:17:47.380Z,12.77
2022-09-30T11:21:00.667Z,12.87
2022-09-30T11:24:21.377Z,12.91
2022-09-30T11:27:40.664Z,12.93
2022-09-30T11:30:57.538Z,12.97
2022-09-30T11:34:17.560Z,12.95
2022-09-30T11:37:38.339Z,12.88
2022-09-30T11:40:54.472Z,12.87
2022-09-30T11:44:09.716Z,12.95
2022-09-30T11:47:44.363Z,12.89
2022-09-30T11:51:03.382Z,12.89
2022-09-30T11:54:26.097Z,12.98
2022-09-30T12:01:24.298Z,12.87
2022-09-30T12:04:35.431Z,12.84
2022-09-30T12:07:45.334Z,12.90
2022-09-30T12:10:57.955Z,13.00
2022-09-30T12:14:09.293Z,12.84
2022-09-30T12:17:24.906Z,12.67
2022-09-30T12:20:35.147Z,12.75
2022-09-30T12:23:47.492Z,12.85
2022-09-30T12:26:56.454Z,12.96
2022-09-30T12:30:22.642Z,13.05
2022-09-30T12:33:45.514Z,13.12
2022-09-30T12:37:08.657Z,13.11
2022-09-30T12:40:43.140Z,13.05
2022-09-30T12:44:42.603Z,13.04
2022-09-30T12:47:51.779Z,13.05
2022-09-30T12:51:01.068Z,13.03
2022-09-30T12:54:16.778Z,13.06
2022-09-30T12:57:27.927Z,13.02
2022-09-30T13:00:37.986Z,12.91
2022-09-30T13:03:51.416Z,12.88
2022-09-30T13:07:20.272Z,12.90
2022-09-30T13:10:31.587Z,12.83
2022-09-30T13:13:37.667Z,12.90
2022-09-30T13:17:21.668Z,13.03
2022-09-30T13:20:56.795Z,13.02
2022-09-30T13:24:05.774Z,12.88
2022-09-30T13:27:16.552Z,12.82
2022-09-30T13:30:40.506Z,12.86
2022-09-30T13:33:49.207Z,12.91
2022-09-30T13:37:06.436Z,12.85
2022-09-30T13:40:43.338Z,12.81
2022-09-30T13:44:03.134Z,12.76
2022-09-30T13:47:25.223Z,12.65
2022-09-30T13:50:35.988Z,12.72
2022-09-30T13:53:49.043Z,12.68
2022-09-30T13:56:57.942Z,12.75
2022-09-30T14:00:10.395Z,12.72
2022-09-30T14:03:51.283Z,12.70
2022-09-30T14:07:10.629Z,12.67
2022-09-30T14:10:37.792Z,12.72
2022-09-30T14:13:54.370Z,12.73
2022-09-30T14:17:16.937Z,12.62
2022-09-30T14:20:39.031Z,12.70
2022-09-30T14:23:45.527Z,12.76
2022-09-30T14:27:31.155Z,12.84
2022-09-30T14:30:45.330Z,12.82
2022-09-30T14:33:55.020Z,12.81
2022-09-30T14:37:03.157Z,12.76
2022-09-30T14:40:14.503Z,12.81
2022-09-30T14:43:35.918Z,12.89
2022-09-30T14:46:48.141Z,12.93
2022-09-30T14:49:54.898Z,12.96
2022-09-30T14:53:03.628Z,12.95
2022-09-30T14:56:22.668Z,12.99
2022-09-30T14:59:34.696Z,13.03
2022-09-30T15:02:47.658Z,13.01
2022-09-30T15:05:53.492Z,12.98
2022-09-30T15:09:07.022Z,12.96
2022-09-30T15:12:16.294Z,12.90
2022-09-30T15:15:40.869Z,12.87
2022-09-30T15:18:49.139Z,12.83
2022-09-30T15:21:58.852Z,12.78
2022-09-30T15:25:06.864Z,12.71
2022-09-30T15:28:13.577Z,12.66
2022-09-30T15:31:27.808Z,12.63
2022-09-30T15:34:34.521Z,12.54
2022-09-30T15:37:40.618Z,12.49
2022-09-30T15:40:53.454Z,12.49
2022-09-30T15:44:00.656Z,12.44
2022-09-30T15:47:12.916Z,12.42
2022-09-30T15:50:40.562Z,12.46
2022-09-30T15:53:51.544Z,12.38
2022-09-30T15:56:57.467Z,12.35
2022-09-30T16:00:08.276Z,12.32
2022-09-30T16:03:30.373Z,12.36
2022-09-30T16:06:45.652Z,12.29
2022-09-30T16:09:51.534Z,12.25
2022-09-30T16:12:58.116Z,12.30
2022-09-30T16:16:06.100Z,12.20
2022-09-30T16:19:21.478Z,12.17
2022-09-30T16:22:53.604Z,12.11
2022-09-30T16:26:28.665Z,12.06
2022-09-30T16:29:34.975Z,12.01
2022-09-30T16:32:44.718Z,11.93
2022-09-30T16:35:53.117Z,11.87
2022-09-30T16:38:59.834Z,11.77
2022-09-30T16:42:07.422Z,11.73
2022-09-30T16:45:16.323Z,11.76
2022-09-30T16:48:25.287Z,11.79
2022-09-30T16:51:34.616Z,11.80
2022-09-30T16:54:40.662Z,11.77
2022-09-30T16:57:47.160Z,11.78
2022-09-30T17:00:52.860Z,11.77
2022-09-30T17:04:00.821Z,11.77
2022-09-30T17:07:14.706Z,11.70
2022-09-30T17:10:25.107Z,11.63
2022-09-30T17:13:30.711Z,11.67
2022-09-30T17:16:37.688Z,11.71
2022-09-30T17:19:43.410Z,11.71
2022-09-30T17:22:53.283Z,11.73
2022-09-30T17:25:58.949Z,11.81
2022-09-30T17:29:30.979Z,11.89
2022-09-30T17:32:32.957Z,11.97
2022-09-30T17:35:40.576Z,12.03
2022-09-30T17:38:57.197Z,12.11
2022-09-30T17:42:19.563Z,12.09
2022-09-30T17:45:26.061Z,12.05
2022-09-30T17:48:33.083Z,12.06
2022-09-30T17:51:39.452Z,12.07
2022-09-30T17:54:52.447Z,12.10
2022-09-30T17:57:58.828Z,12.11
2022-09-30T18:01:09.745Z,12.14
2022-09-30T18:04:16.158Z,12.14
2022-09-30T18:07:27.411Z,12.19
2022-09-30T18:10:39.803Z,12.22
2022-09-30T18:14:18.373Z,12.24
2022-09-30T18:17:25.570Z,12.22
2022-09-30T18:20:32.487Z,12.23
2022-09-30T18:23:38.496Z,12.24
2022-09-30T18:26:47.967Z,12.26
2022-09-30T18:29:53.680Z,12.29
2022-09-30T18:33:00.312Z,12.32
2022-09-30T18:36:08.760Z,12.31
2022-09-30T18:39:15.317Z,12.29
2022-09-30T18:42:23.763Z,12.28
2022-09-30T18:45:31.801Z,12.20
2022-09-30T18:48:37.952Z,12.14
2022-09-30T18:51:44.503Z,12.14
2022-09-30T18:54:53.412Z,12.15
2022-09-30T18:58:03.410Z,12.12
2022-09-30T19:01:09.782Z,12.07
2022-09-30T19:04:17.056Z,12.06
2022-09-30T19:07:24.424Z,12.02
2022-09-30T19:10:30.972Z,12.00
2022-09-30T19:13:40.117Z,11.99
2022-09-30T19:16:46.616Z,11.98
2022-09-30T19:19:52.824Z,11.97
2022-09-30T19:22:59.395Z,11.96
2022-09-30T19:26:07.918Z,11.94
2022-09-30T19:29:18.607Z,11.94
2022-09-30T19:32:24.640Z,11.95
2022-09-30T19:35:39.547Z,12.02
2022-09-30T19:38:49.806Z,12.06
2022-09-30T19:42:01.628Z,12.07
2022-09-30T19:45:13.075Z,12.07
2022-09-30T19:48:20.435Z,12.08
2022-09-30T19:51:28.296Z,12.10
2022-09-30T19:54:41.237Z,12.14
2022-09-30T19:57:47.765Z,12.15
2022-09-30T20:00:59.351Z,12.16
2022-09-30T20:04:08.387Z,12.17
2022-09-30T20:07:16.333Z,12.17
2022-09-30T20:10:22.737Z,12.17
2022-09-30T20:13:30.284Z,12.17
2022-09-30T20:16:35.956Z,12.17
2022-09-30T20:19:42.918Z,12.10
2022-09-30T20:22:48.572Z,12.06
2022-09-30T20:25:55.480Z,12.03
2022-09-30T20:29:03.108Z,12.04
2022-09-30T20:32:12.636Z,12.02
2022-09-30T20:35:18.328Z,12.02
2022-09-30T20:38:25.120Z,12.05
2022-09-30T20:41:36.044Z,12.01
2022-09-30T20:44:45.382Z,12.04
2022-09-30T20:47:54.547Z,12.08
2022-09-30T20:51:00.991Z,12.06
2022-09-30T20:54:07.383Z,12.10
2022-09-30T20:57:13.831Z,12.13
2022-09-30T21:00:19.480Z,12.09
2022-09-30T21:03:32.220Z,12.09
2022-09-30T21:06:37.828Z,12.11
2022-09-30T21:09:44.267Z,12.13
2022-09-30T21:12:50.057Z,12.12
2022-09-30T21:16:04.234Z,12.05
2022-09-30T21:19:13.233Z,11.96
2022-09-30T21:22:20.263Z,11.90
2022-09-30T21:25:25.872Z,11.86
2022-09-30T21:28:33.378Z,11.82
2022-09-30T21:31:39.003Z,11.76
2022-09-30T21:34:48.244Z,11.73
2022-09-30T21:37:54.061Z,11.71
2022-09-30T21:41:03.347Z,11.70
2022-09-30T21:44:09.334Z,11.75
2022-09-30T21:47:15.759Z,11.82
2022-09-30T21:50:24.096Z,11.75
2022-09-30T21:53:32.161Z,11.71
2022-09-30T21:56:37.737Z,11.72
2022-09-30T21:59:49.744Z,11.72
2022-09-30T22:02:56.022Z,11.69
2022-09-30T22:06:07.558Z,11.68
2022-09-30T22:09:13.581Z,11.64
2022-09-30T22:12:20.414Z,11.60
2022-09-30T22:15:26.204Z,11.59
2022-09-30T22:18:33.154Z,11.59
2022-09-30T22:21:41.561Z,11.65
2022-09-30T22:24:48.364Z,11.68
2022-09-30T22:27:54.242Z,11.73
2022-09-30T22:31:00.715Z,11.75
2022-09-30T22:34:25.040Z,11.71
2022-09-30T22:38:01.270Z,11.70
2022-09-30T22:41:07.231Z,11.74
2022-09-30T22:44:16.732Z,11.72
2022-09-30T22:47:22.353Z,11.69
2022-09-30T22:50:29.651Z,11.70
2022-09-30T22:53:38.900Z,11.71
2022-09-30T22:56:45.324Z,11.71
2022-09-30T22:59:52.889Z,11.64
2022-09-30T23:02:59.343Z,11.64
2022-09-30T23:06:07.149Z,11.73
2022-09-30T23:09:16.498Z,11.81
2022-09-30T23:12:22.136Z,11.87
2022-09-30T23:15:28.660Z,11.86
2022-09-30T23:18:36.025Z,11.82
2022-09-30T23:21:43.085Z,11.80
2022-09-30T23:24:51.626Z,11.77
2022-09-30T23:27:58.384Z,11.77
2022-09-30T23:31:06.600Z,11.72
2022-09-30T23:34:13.379Z,11.63
2022-09-30T23:37:19.488Z,11.60
2022-09-30T23:40:28.724Z,11.60
2022-09-30T23:43:37.187Z,11.64
2022-09-30T23:47:04.243Z,11.63
2022-09-30T23:50:11.934Z,11.59
2022-09-30T23:53:18.808Z,11.61
2022-09-30T23:56:27.237Z,11.62
2022-09-30T23:59:34.987Z,11.59
